sensor_id;sensor_type;location;lat;lon;timestamp;pressure;altitude;pressure_sealevel;temperature;humidity
29839;BME280;18669;53.356;-1.464;2023-06-22T00:01:53;100840.63;;;17.12;100.00
29839;BME280;18669;53.356;-1.464;2023-06-22T00:04:38;100832.78;;;17.09;100.00
29839;BME280;18669;53.356;-1.464;2023-06-22T00:07:23;100832.56;;;17.13;100.00
29839;BME280;18669;53.356;-1.464;2023-06-22T00:10:08;100836.25;;;17.11;100.00
29839;BME280;18669;53.356;-1.464;2023-06-22T00:12:53;100835.56;;;17.06;100.00
29839;BME280;18669;53.356;-1.464;2023-06-22T00:15:40;100839.16;;;17.05;100.00
29839;BME280;18669;53.356;-1.464;2023-06-22T00:18:25;100834.69;;;17.05;100.00
29839;BME280;18669;53.356;-1.464;2023-06-22T00:21:12;100826.72;;;16.84;100.00
29839;BME280;18669;53.356;-1.464;2023-06-22T00:23:57;100840.13;;;16.81;100.00
29839;BME280;18669;53.356;-1.464;2023-06-22T00:26:42;100837.63;;;16.78;100.00
29839;BME280;18669;53.356;-1.464;2023-06-22T00:29:28;100830.97;;;16.68;100.00
29839;BME280;18669;53.356;-1.464;2023-06-22T00:32:12;100839.69;;;16.72;100.00
29839;BME280;18669;53.356;-1.464;2023-06-22T00:34:57;100839.06;;;16.65;100.00
29839;BME280;18669;53.356;-1.464;2023-06-22T00:37:42;100848.72;;;16.67;100.00
29839;BME280;18669;53.356;-1.464;2023-06-22T00:40:31;100846.63;;;16.74;100.00
29839;BME280;18669;53.356;-1.464;2023-06-22T00:43:16;100846.19;;;16.64;100.00
29839;BME280;18669;53.356;-1.464;2023-06-22T00:46:01;100847.22;;;16.60;100.00
29839;BME280;18669;53.356;-1.464;2023-06-22T00:48:47;100844.84;;;16.54;100.00
29839;BME280;18669;53.356;-1.464;2023-06-22T00:51:32;100837.13;;;16.48;100.00
29839;BME280;18669;53.356;-1.464;2023-06-22T00:54:17;100843.44;;;16.45;100.00
29839;BME280;18669;53.356;-1.464;2023-06-22T00:57:09;100841.56;;;16.47;100.00
29839;BME280;18669;53.356;-1.464;2023-06-22T00:59:56;100853.38;;;16.40;100.00
29839;BME280;18669;53.356;-1.464;2023-06-22T01:02:41;100861.41;;;16.38;100.00
29839;BME280;18669;53.356;-1.464;2023-06-22T01:05:25;100852.56;;;16.38;100.00
29839;BME280;18669;53.356;-1.464;2023-06-22T01:11:49;100862.88;;;16.46;100.00
29839;BME280;18669;53.356;-1.464;2023-06-22T01:15:02;100867.53;;;16.40;100.00
29839;BME280;18669;53.356;-1.464;2023-06-22T01:17:49;100865.25;;;16.31;100.00
29839;BME280;18669;53.356;-1.464;2023-06-22T01:20:37;100879.44;;;16.30;100.00
29839;BME280;18669;53.356;-1.464;2023-06-22T01:26:42;100876.59;;;16.35;100.00
29839;BME280;18669;53.356;-1.464;2023-06-22T01:29:29;100869.81;;;16.28;100.00
29839;BME280;18669;53.356;-1.464;2023-06-22T01:32:14;100879.50;;;16.29;100.00
29839;BME280;18669;53.356;-1.464;2023-06-22T01:35:00;100873.81;;;16.38;100.00
29839;BME280;18669;53.356;-1.464;2023-06-22T01:37:45;100874.88;;;16.34;100.00
29839;BME280;18669;53.356;-1.464;2023-06-22T01:40:33;100881.66;;;16.41;100.00
29839;BME280;18669;53.356;-1.464;2023-06-22T01:43:19;100882.47;;;16.43;100.00
29839;BME280;18669;53.356;-1.464;2023-06-22T01:46:08;100877.34;;;16.38;100.00
29839;BME280;18669;53.356;-1.464;2023-06-22T01:48:52;100885.50;;;16.34;100.00
29839;BME280;18669;53.356;-1.464;2023-06-22T01:51:38;100885.56;;;16.32;100.00
29839;BME280;18669;53.356;-1.464;2023-06-22T01:54:22;100884.75;;;16.30;100.00
29839;BME280;18669;53.356;-1.464;2023-06-22T01:57:07;100884.81;;;16.29;100.00
29839;BME280;18669;53.356;-1.464;2023-06-22T02:00:00;100882.78;;;16.35;100.00
29839;BME280;18669;53.356;-1.464;2023-06-22T02:05:49;100892.66;;;16.32;100.00
29839;BME280;18669;53.356;-1.464;2023-06-22T02:08:55;100889.06;;;16.33;100.00
29839;BME280;18669;53.356;-1.464;2023-06-22T02:11:42;100894.63;;;16.26;100.00
29839;BME280;18669;53.356;-1.464;2023-06-22T02:14:29;100904.47;;;16.24;100.00
29839;BME280;18669;53.356;-1.464;2023-06-22T02:17:14;100899.28;;;16.21;100.00
29839;BME280;18669;53.356;-1.464;2023-06-22T02:20:00;100901.75;;;16.26;100.00
29839;BME280;18669;53.356;-1.464;2023-06-22T02:22:45;100902.47;;;16.30;100.00
29839;BME280;18669;53.356;-1.464;2023-06-22T02:25:30;100897.28;;;16.26;100.00
29839;BME280;18669;53.356;-1.464;2023-06-22T02:28:16;100905.13;;;16.30;100.00
29839;BME280;18669;53.356;-1.464;2023-06-22T02:31:01;100894.50;;;16.30;100.00
29839;BME280;18669;53.356;-1.464;2023-06-22T02:33:46;100894.34;;;16.34;100.00
29839;BME280;18669;53.356;-1.464;2023-06-22T02:36:31;100897.97;;;16.32;100.00
29839;BME280;18669;53.356;-1.464;2023-06-22T02:39:22;100898.53;;;16.40;100.00
29839;BME280;18669;53.356;-1.464;2023-06-22T02:42:07;100900.63;;;16.32;100.00
29839;BME280;18669;53.356;-1.464;2023-06-22T02:44:51;100886.72;;;16.25;100.00
29839;BME280;18669;53.356;-1.464;2023-06-22T02:47:36;100891.91;;;16.28;100.00
29839;BME280;18669;53.356;-1.464;2023-06-22T02:50:21;100903.28;;;16.32;100.00
29839;BME280;18669;53.356;-1.464;2023-06-22T02:53:06;100903.38;;;16.29;100.00
29839;BME280;18669;53.356;-1.464;2023-06-22T02:55:51;100905.19;;;16.28;100.00
29839;BME280;18669;53.356;-1.464;2023-06-22T02:58:36;100906.97;;;16.28;100.00
29839;BME280;18669;53.356;-1.464;2023-06-22T03:01:22;100900.84;;;16.25;100.00
29839;BME280;18669;53.356;-1.464;2023-06-22T03:04:09;100899.09;;;16.26;100.00
29839;BME280;18669;53.356;-1.464;2023-06-22T03:06:54;100894.00;;;16.20;100.00
29839;BME280;18669;53.356;-1.464;2023-06-22T03:09:39;100896.88;;;16.15;100.00
29839;BME280;18669;53.356;-1.464;2023-06-22T03:12:23;100906.69;;;16.13;100.00
29839;BME280;18669;53.356;-1.464;2023-06-22T03:15:11;100907.41;;;16.17;100.00
29839;BME280;18669;53.356;-1.464;2023-06-22T03:17:56;100914.69;;;16.11;100.00
29839;BME280;18669;53.356;-1.464;2023-06-22T03:20:41;100903.34;;;16.08;100.00
29839;BME280;18669;53.356;-1.464;2023-06-22T03:23:25;100909.44;;;16.10;100.00
29839;BME280;18669;53.356;-1.464;2023-06-22T03:26:10;100903.34;;;16.08;100.00
29839;BME280;18669;53.356;-1.464;2023-06-22T03:28:56;100905.06;;;16.09;100.00
29839;BME280;18669;53.356;-1.464;2023-06-22T03:31:41;100892.91;;;16.03;100.00
29839;BME280;18669;53.356;-1.464;2023-06-22T03:34:25;100905.91;;;16.09;100.00
29839;BME280;18669;53.356;-1.464;2023-06-22T03:37:10;100900.69;;;16.08;100.00
29839;BME280;18669;53.356;-1.464;2023-06-22T03:39:55;100899.78;;;16.07;100.00
29839;BME280;18669;53.356;-1.464;2023-06-22T03:42:40;100902.53;;;16.06;100.00
29839;BME280;18669;53.356;-1.464;2023-06-22T03:45:25;100891.19;;;16.02;100.00
29839;BME280;18669;53.356;-1.464;2023-06-22T03:48:10;100895.72;;;15.99;100.00
29839;BME280;18669;53.356;-1.464;2023-06-22T03:50:54;100901.03;;;15.99;100.00
29839;BME280;18669;53.356;-1.464;2023-06-22T03:53:39;100896.53;;;16.01;100.00
29839;BME280;18669;53.356;-1.464;2023-06-22T03:56:24;100897.44;;;16.00;100.00
29839;BME280;18669;53.356;-1.464;2023-06-22T03:59:09;100907.25;;;15.98;100.00
29839;BME280;18669;53.356;-1.464;2023-06-22T04:01:54;100901.94;;;15.98;100.00
29839;BME280;18669;53.356;-1.464;2023-06-22T04:04:39;100902.88;;;15.96;100.00
29839;BME280;18669;53.356;-1.464;2023-06-22T04:07:24;100902.06;;;15.94;100.00
29839;BME280;18669;53.356;-1.464;2023-06-22T04:10:09;100905.50;;;15.98;100.00
29839;BME280;18669;53.356;-1.464;2023-06-22T04:12:54;100900.34;;;15.93;100.00
29839;BME280;18669;53.356;-1.464;2023-06-22T04:15:39;100904.56;;;15.99;100.00
29839;BME280;18669;53.356;-1.464;2023-06-22T04:18:24;100903.75;;;15.97;100.00
29839;BME280;18669;53.356;-1.464;2023-06-22T04:21:10;100901.84;;;16.01;100.00
29839;BME280;18669;53.356;-1.464;2023-06-22T04:23:54;100909.91;;;15.98;100.00
29839;BME280;18669;53.356;-1.464;2023-06-22T04:26:39;100902.75;;;16.00;100.00
29839;BME280;18669;53.356;-1.464;2023-06-22T04:29:26;100910.69;;;16.01;100.00
29839;BME280;18669;53.356;-1.464;2023-06-22T04:32:13;100898.38;;;15.99;100.00
29839;BME280;18669;53.356;-1.464;2023-06-22T04:34:58;100904.25;;;16.07;100.00
29839;BME280;18669;53.356;-1.464;2023-06-22T04:37:44;100907.91;;;16.26;100.00
29839;BME280;18669;53.356;-1.464;2023-06-22T04:40:30;100904.94;;;16.12;100.00
29839;BME280;18669;53.356;-1.464;2023-06-22T04:43:15;100904.03;;;16.13;100.00
29839;BME280;18669;53.356;-1.464;2023-06-22T04:46:00;100906.59;;;16.15;100.00
29839;BME280;18669;53.356;-1.464;2023-06-22T04:48:47;100900.44;;;16.14;100.00
29839;BME280;18669;53.356;-1.464;2023-06-22T04:51:32;100900.56;;;16.11;100.00
29839;BME280;18669;53.356;-1.464;2023-06-22T04:54:17;100895.44;;;16.06;100.00
29839;BME280;18669;53.356;-1.464;2023-06-22T04:57:03;100904.94;;;16.12;100.00
29839;BME280;18669;53.356;-1.464;2023-06-22T04:59:48;100900.91;;;16.02;100.00
29839;BME280;18669;53.356;-1.464;2023-06-22T05:02:33;100897.56;;;15.96;100.00
29839;BME280;18669;53.356;-1.464;2023-06-22T05:05:18;100900.09;;;16.00;100.00
29839;BME280;18669;53.356;-1.464;2023-06-22T05:08:03;100906.41;;;15.97;100.00
29839;BME280;18669;53.356;-1.464;2023-06-22T05:10:51;100909.91;;;15.98;100.00
29839;BME280;18669;53.356;-1.464;2023-06-22T05:13:35;100897.75;;;15.92;100.00
29839;BME280;18669;53.356;-1.464;2023-06-22T05:16:20;100915.22;;;15.98;100.00
29839;BME280;18669;53.356;-1.464;2023-06-22T05:19:09;100915.06;;;16.02;100.00
29839;BME280;18669;53.356;-1.464;2023-06-22T05:21:54;100919.34;;;16.06;100.00
29839;BME280;18669;53.356;-1.464;2023-06-22T05:24:39;100918.44;;;16.06;100.00
29839;BME280;18669;53.356;-1.464;2023-06-22T05:27:24;100919.81;;;16.16;100.00
29839;BME280;18669;53.356;-1.464;2023-06-22T05:30:09;100924.75;;;16.25;100.00
29839;BME280;18669;53.356;-1.464;2023-06-22T05:32:54;100914.00;;;16.29;100.00
29839;BME280;18669;53.356;-1.464;2023-06-22T05:35:38;100922.66;;;16.34;100.00
29839;BME280;18669;53.356;-1.464;2023-06-22T05:38:23;100933.13;;;16.38;100.00
29839;BME280;18669;53.356;-1.464;2023-06-22T05:41:08;100931.00;;;16.47;100.00
29839;BME280;18669;53.356;-1.464;2023-06-22T05:43:53;100928.91;;;16.55;100.00
29839;BME280;18669;53.356;-1.464;2023-06-22T05:46:40;100931.63;;;16.76;100.00
29839;BME280;18669;53.356;-1.464;2023-06-22T05:49:28;100924.28;;;16.81;100.00
29839;BME280;18669;53.356;-1.464;2023-06-22T05:52:16;100925.59;;;16.93;100.00
29839;BME280;18669;53.356;-1.464;2023-06-22T05:55:02;100928.75;;;17.03;100.00
29839;BME280;18669;53.356;-1.464;2023-06-22T05:57:47;100925.06;;;17.05;100.00
29839;BME280;18669;53.356;-1.464;2023-06-22T06:00:32;100938.81;;;17.15;100.00
29839;BME280;18669;53.356;-1.464;2023-06-22T06:03:17;100937.59;;;17.24;100.00
29839;BME280;18669;53.356;-1.464;2023-06-22T06:06:02;100930.19;;;17.30;100.00
29839;BME280;18669;53.356;-1.464;2023-06-22T06:08:47;100935.25;;;17.37;100.00
29839;BME280;18669;53.356;-1.464;2023-06-22T06:11:32;100928.78;;;17.42;100.00
29839;BME280;18669;53.356;-1.464;2023-06-22T06:14:17;100918.00;;;17.45;100.00
29839;BME280;18669;53.356;-1.464;2023-06-22T06:17:02;100916.06;;;17.49;100.00
29839;BME280;18669;53.356;-1.464;2023-06-22T06:19:46;100933.41;;;17.58;100.00
29839;BME280;18669;53.356;-1.464;2023-06-22T06:22:31;100932.28;;;17.64;100.00
29839;BME280;18669;53.356;-1.464;2023-06-22T06:25:16;100942.41;;;17.74;100.00
29839;BME280;18669;53.356;-1.464;2023-06-22T06:28:03;100937.75;;;17.80;100.00
29839;BME280;18669;53.356;-1.464;2023-06-22T06:30:49;100935.59;;;17.88;100.00
29839;BME280;18669;53.356;-1.464;2023-06-22T06:33:34;100934.44;;;17.94;100.00
29839;BME280;18669;53.356;-1.464;2023-06-22T06:36:18;100939.28;;;18.04;100.00
29839;BME280;18669;53.356;-1.464;2023-06-22T06:39:03;100942.88;;;18.23;100.00
29839;BME280;18669;53.356;-1.464;2023-06-22T06:41:48;100940.97;;;18.44;100.00
29839;BME280;18669;53.356;-1.464;2023-06-22T06:44:33;100936.66;;;18.60;100.00
29839;BME280;18669;53.356;-1.464;2023-06-22T06:47:18;100948.34;;;18.75;100.00
29839;BME280;18669;53.356;-1.464;2023-06-22T06:50:04;100929.44;;;18.80;100.00
29839;BME280;18669;53.356;-1.464;2023-06-22T06:52:49;100938.06;;;18.85;100.00
29839;BME280;18669;53.356;-1.464;2023-06-22T06:55:34;100949.13;;;18.95;100.00
29839;BME280;18669;53.356;-1.464;2023-06-22T06:58:19;100940.69;;;19.04;100.00
29839;BME280;18669;53.356;-1.464;2023-06-22T07:01:04;100948.28;;;19.12;100.00
29839;BME280;18669;53.356;-1.464;2023-06-22T07:03:49;100953.63;;;19.30;100.00
29839;BME280;18669;53.356;-1.464;2023-06-22T07:06:34;100951.88;;;19.46;100.00
29839;BME280;18669;53.356;-1.464;2023-06-22T07:09:19;100950.13;;;19.63;100.00
29839;BME280;18669;53.356;-1.464;2023-06-22T07:12:04;100945.84;;;19.76;100.00
29839;BME280;18669;53.356;-1.464;2023-06-22T07:14:49;100944.25;;;19.90;100.00
29839;BME280;18669;53.356;-1.464;2023-06-22T07:17:36;100942.13;;;20.12;100.00
29839;BME280;18669;53.356;-1.464;2023-06-22T07:20:21;100952.63;;;20.48;100.00
29839;BME280;18669;53.356;-1.464;2023-06-22T07:23:06;100952.50;;;20.65;100.00
29839;BME280;18669;53.356;-1.464;2023-06-22T07:25:51;100948.34;;;20.76;100.00
29839;BME280;18669;53.356;-1.464;2023-06-22T07:28:36;100954.06;;;20.85;100.00
29839;BME280;18669;53.356;-1.464;2023-06-22T07:31:23;100956.56;;;21.03;100.00
29839;BME280;18669;53.356;-1.464;2023-06-22T07:34:08;100955.47;;;20.77;100.00
29839;BME280;18669;53.356;-1.464;2023-06-22T07:36:53;100950.50;;;20.85;100.00
29839;BME280;18669;53.356;-1.464;2023-06-22T07:39:38;100956.72;;;21.16;100.00
29839;BME280;18669;53.356;-1.464;2023-06-22T07:42:24;100952.44;;;21.42;100.00
29839;BME280;18669;53.356;-1.464;2023-06-22T07:45:09;100950.75;;;21.56;100.00
29839;BME280;18669;53.356;-1.464;2023-06-22T07:47:54;100946.22;;;21.27;100.00
29839;BME280;18669;53.356;-1.464;2023-06-22T07:50:39;100956.00;;;21.43;100.00
29839;BME280;18669;53.356;-1.464;2023-06-22T07:53:23;100949.16;;;21.68;100.00
29839;BME280;18669;53.356;-1.464;2023-06-22T07:56:12;100956.50;;;21.93;100.00
29839;BME280;18669;53.356;-1.464;2023-06-22T07:58:56;100949.88;;;21.99;100.00
29839;BME280;18669;53.356;-1.464;2023-06-22T08:01:43;100949.22;;;22.37;100.00
29839;BME280;18669;53.356;-1.464;2023-06-22T08:04:28;100952.53;;;22.83;100.00
29839;BME280;18669;53.356;-1.464;2023-06-22T08:07:13;100944.47;;;22.83;98.32
29839;BME280;18669;53.356;-1.464;2023-06-22T08:09:58;100952.41;;;22.84;99.30
29839;BME280;18669;53.356;-1.464;2023-06-22T08:12:43;100949.88;;;22.55;90.35
29839;BME280;18669;53.356;-1.464;2023-06-22T08:15:28;100943.50;;;22.43;100.00
29839;BME280;18669;53.356;-1.464;2023-06-22T08:18:14;100948.38;;;22.37;100.00
29839;BME280;18669;53.356;-1.464;2023-06-22T08:20:59;100944.63;;;22.54;100.00
29839;BME280;18669;53.356;-1.464;2023-06-22T08:23:44;100945.91;;;23.01;95.54
29839;BME280;18669;53.356;-1.464;2023-06-22T08:26:29;100948.47;;;23.43;84.11
29839;BME280;18669;53.356;-1.464;2023-06-22T08:29:14;100944.19;;;24.17;76.88
29839;BME280;18669;53.356;-1.464;2023-06-22T08:32:00;100937.03;;;24.53;75.93
29839;BME280;18669;53.356;-1.464;2023-06-22T08:34:45;100939.25;;;24.59;75.50
29839;BME280;18669;53.356;-1.464;2023-06-22T08:37:30;100940.75;;;24.39;77.62
29839;BME280;18669;53.356;-1.464;2023-06-22T08:40:20;100943.09;;;24.43;82.38
29839;BME280;18669;53.356;-1.464;2023-06-22T08:43:07;100942.25;;;24.19;85.88
29839;BME280;18669;53.356;-1.464;2023-06-22T08:45:52;100943.88;;;23.95;79.12
29839;BME280;18669;53.356;-1.464;2023-06-22T08:48:37;100940.03;;;23.74;78.59
29839;BME280;18669;53.356;-1.464;2023-06-22T08:51:22;100943.47;;;23.76;82.69
29839;BME280;18669;53.356;-1.464;2023-06-22T08:54:07;100936.06;;;23.79;88.63
29839;BME280;18669;53.356;-1.464;2023-06-22T08:56:52;100941.09;;;23.84;83.33
29839;BME280;18669;53.356;-1.464;2023-06-22T08:59:37;100942.41;;;24.28;80.84
29839;BME280;18669;53.356;-1.464;2023-06-22T09:02:22;100938.94;;;24.88;80.53
29839;BME280;18669;53.356;-1.464;2023-06-22T09:05:07;100932.59;;;25.00;73.31
29839;BME280;18669;53.356;-1.464;2023-06-22T09:07:52;100943.56;;;24.62;75.17
29839;BME280;18669;53.356;-1.464;2023-06-22T09:10:39;100941.94;;;23.97;72.96
29839;BME280;18669;53.356;-1.464;2023-06-22T09:13:24;100926.97;;;23.56;77.50
29839;BME280;18669;53.356;-1.464;2023-06-22T09:16:09;100935.47;;;23.24;97.51
29839;BME280;18669;53.356;-1.464;2023-06-22T09:18:54;100947.75;;;23.14;100.00
29839;BME280;18669;53.356;-1.464;2023-06-22T09:21:38;100954.03;;;22.87;93.45
29839;BME280;18669;53.356;-1.464;2023-06-22T09:24:23;100946.22;;;22.84;93.20
29839;BME280;18669;53.356;-1.464;2023-06-22T09:27:08;100951.63;;;23.09;93.82
29839;BME280;18669;53.356;-1.464;2023-06-22T09:29:53;100943.03;;;23.17;89.24
29839;BME280;18669;53.356;-1.464;2023-06-22T09:32:38;100950.41;;;23.01;85.07
29839;BME280;18669;53.356;-1.464;2023-06-22T09:35:23;100952.56;;;23.08;89.81
29839;BME280;18669;53.356;-1.464;2023-06-22T09:38:08;100949.06;;;23.73;94.58
29839;BME280;18669;53.356;-1.464;2023-06-22T09:40:53;100949.47;;;25.02;80.43
29839;BME280;18669;53.356;-1.464;2023-06-22T09:43:38;100947.44;;;26.43;63.39
29839;BME280;18669;53.356;-1.464;2023-06-22T09:46:23;100945.84;;;27.58;56.52
29839;BME280;18669;53.356;-1.464;2023-06-22T09:49:10;100950.56;;;28.86;55.01
29839;BME280;18669;53.356;-1.464;2023-06-22T09:51:55;100950.88;;;29.60;47.96
29839;BME280;18669;53.356;-1.464;2023-06-22T09:54:40;100951.97;;;29.20;46.45
29839;BME280;18669;53.356;-1.464;2023-06-22T09:57:25;100943.88;;;29.86;46.63
29839;BME280;18669;53.356;-1.464;2023-06-22T10:00:11;100957.44;;;29.58;45.96
29839;BME280;18669;53.356;-1.464;2023-06-22T10:02:59;100954.28;;;29.05;47.66
29839;BME280;18669;53.356;-1.464;2023-06-22T10:05:44;100954.47;;;29.51;48.31
29839;BME280;18669;53.356;-1.464;2023-06-22T10:08:30;100947.03;;;28.86;48.93
29839;BME280;18669;53.356;-1.464;2023-06-22T10:11:14;100954.56;;;28.53;50.47
29839;BME280;18669;53.356;-1.464;2023-06-22T10:13:59;100949.03;;;28.84;49.49
29839;BME280;18669;53.356;-1.464;2023-06-22T10:16:44;100953.84;;;28.51;50.28
29839;BME280;18669;53.356;-1.464;2023-06-22T10:19:29;100950.03;;;28.83;52.03
29839;BME280;18669;53.356;-1.464;2023-06-22T10:22:14;100952.84;;;29.68;49.75
29839;BME280;18669;53.356;-1.464;2023-06-22T10:24:59;100948.94;;;30.09;46.00
29839;BME280;18669;53.356;-1.464;2023-06-22T10:27:44;100957.44;;;29.86;45.31
29839;BME280;18669;53.356;-1.464;2023-06-22T10:30:29;100959.81;;;29.13;47.20
29839;BME280;18669;53.356;-1.464;2023-06-22T10:33:14;100963.91;;;28.29;47.76
29839;BME280;18669;53.356;-1.464;2023-06-22T10:35:59;100962.81;;;28.71;49.80
29839;BME280;18669;53.356;-1.464;2023-06-22T10:38:44;100972.06;;;28.49;49.51
29839;BME280;18669;53.356;-1.464;2023-06-22T10:41:29;100967.59;;;28.28;51.52
29839;BME280;18669;53.356;-1.464;2023-06-22T10:44:14;100968.03;;;28.33;49.25
29839;BME280;18669;53.356;-1.464;2023-06-22T10:46:59;100967.31;;;27.07;52.17
29839;BME280;18669;53.356;-1.464;2023-06-22T10:49:44;100968.66;;;26.36;57.63
29839;BME280;18669;53.356;-1.464;2023-06-22T10:52:29;100965.88;;;25.92;58.68
29839;BME280;18669;53.356;-1.464;2023-06-22T10:55:14;100978.38;;;25.59;62.84
29839;BME280;18669;53.356;-1.464;2023-06-22T10:57:59;100972.53;;;25.18;67.26
29839;BME280;18669;53.356;-1.464;2023-06-22T11:00:43;100978.31;;;24.89;68.15
29839;BME280;18669;53.356;-1.464;2023-06-22T11:03:28;100978.91;;;24.44;69.52
29839;BME280;18669;53.356;-1.464;2023-06-22T11:06:13;100983.19;;;24.22;75.98
29839;BME280;18669;53.356;-1.464;2023-06-22T11:08:59;100973.88;;;24.02;80.27
29839;BME280;18669;53.356;-1.464;2023-06-22T11:11:44;100978.69;;;23.97;80.07
29839;BME280;18669;53.356;-1.464;2023-06-22T11:14:29;100977.75;;;23.98;81.51
29839;BME280;18669;53.356;-1.464;2023-06-22T11:17:14;100976.56;;;24.02;80.07
29839;BME280;18669;53.356;-1.464;2023-06-22T11:19:59;100976.13;;;23.95;97.90
29839;BME280;18669;53.356;-1.464;2023-06-22T11:22:44;100981.41;;;23.84;100.00
29839;BME280;18669;53.356;-1.464;2023-06-22T11:25:29;100983.44;;;23.67;100.00
29839;BME280;18669;53.356;-1.464;2023-06-22T11:28:14;100974.56;;;23.41;100.00
29839;BME280;18669;53.356;-1.464;2023-06-22T11:31:01;100985.59;;;23.49;100.00
29839;BME280;18669;53.356;-1.464;2023-06-22T11:33:46;100978.06;;;23.29;100.00
29839;BME280;18669;53.356;-1.464;2023-06-22T11:36:32;100982.59;;;23.28;100.00
29839;BME280;18669;53.356;-1.464;2023-06-22T11:39:17;100988.41;;;23.35;100.00
29839;BME280;18669;53.356;-1.464;2023-06-22T11:42:02;100983.25;;;23.45;100.00
29839;BME280;18669;53.356;-1.464;2023-06-22T11:44:47;100974.88;;;23.62;100.00
29839;BME280;18669;53.356;-1.464;2023-06-22T11:47:32;100969.47;;;23.88;100.00
29839;BME280;18669;53.356;-1.464;2023-06-22T11:50:17;100968.66;;;24.25;100.00
29839;BME280;18669;53.356;-1.464;2023-06-22T11:53:02;100967.03;;;24.84;100.00
29839;BME280;18669;53.356;-1.464;2023-06-22T11:55:47;100964.88;;;26.39;82.84
29839;BME280;18669;53.356;-1.464;2023-06-22T11:58:33;100950.00;;;28.73;61.38
29839;BME280;18669;53.356;-1.464;2023-06-22T12:01:18;100939.69;;;30.84;50.28
29839;BME280;18669;53.356;-1.464;2023-06-22T12:04:03;100946.78;;;32.41;46.64
29839;BME280;18669;53.356;-1.464;2023-06-22T12:06:50;100950.56;;;33.80;41.58
29839;BME280;18669;53.356;-1.464;2023-06-22T12:09:35;100939.16;;;34.16;39.80
29839;BME280;18669;53.356;-1.464;2023-06-22T12:12:19;100945.31;;;34.41;38.54
29839;BME280;18669;53.356;-1.464;2023-06-22T12:15:05;100949.34;;;33.26;40.24
29839;BME280;18669;53.356;-1.464;2023-06-22T12:17:50;100955.59;;;30.60;46.12
29839;BME280;18669;53.356;-1.464;2023-06-22T12:20:35;100947.13;;;29.14;50.73
29839;BME280;18669;53.356;-1.464;2023-06-22T12:23:20;100951.13;;;28.00;57.01
29839;BME280;18669;53.356;-1.464;2023-06-22T12:26:05;100948.50;;;27.27;62.51
29839;BME280;18669;53.356;-1.464;2023-06-22T12:28:50;100939.81;;;28.16;56.74
29839;BME280;18669;53.356;-1.464;2023-06-22T12:31:36;100940.94;;;29.79;53.40
29839;BME280;18669;53.356;-1.464;2023-06-22T12:34:23;100939.63;;;31.20;46.06
29839;BME280;18669;53.356;-1.464;2023-06-22T12:37:07;100934.88;;;31.75;43.44
29839;BME280;18669;53.356;-1.464;2023-06-22T12:39:54;100945.78;;;32.51;41.09
29839;BME280;18669;53.356;-1.464;2023-06-22T12:42:39;100937.09;;;32.39;39.93
29839;BME280;18669;53.356;-1.464;2023-06-22T12:45:24;100933.53;;;33.05;40.01
29839;BME280;18669;53.356;-1.464;2023-06-22T12:48:13;100926.84;;;33.32;37.69
29839;BME280;18669;53.356;-1.464;2023-06-22T12:50:58;100934.72;;;33.18;36.79
29839;BME280;18669;53.356;-1.464;2023-06-22T12:53:43;100922.97;;;32.77;37.99
29839;BME280;18669;53.356;-1.464;2023-06-22T12:56:28;100929.59;;;33.80;37.12
29839;BME280;18669;53.356;-1.464;2023-06-22T12:59:13;100927.44;;;35.75;34.71
29839;BME280;18669;53.356;-1.464;2023-06-22T13:01:57;100923.50;;;35.18;33.76
29839;BME280;18669;53.356;-1.464;2023-06-22T13:04:43;100920.81;;;33.61;36.91
29839;BME280;18669;53.356;-1.464;2023-06-22T13:07:28;100918.91;;;32.97;37.58
29839;BME280;18669;53.356;-1.464;2023-06-22T13:10:12;100923.88;;;33.58;36.29
29839;BME280;18669;53.356;-1.464;2023-06-22T13:12:57;100927.25;;;32.63;39.70
29839;BME280;18669;53.356;-1.464;2023-06-22T13:15:44;100925.22;;;32.81;38.16
29839;BME280;18669;53.356;-1.464;2023-06-22T13:18:29;100917.19;;;31.44;39.18
29839;BME280;18669;53.356;-1.464;2023-06-22T13:21:14;100918.44;;;29.97;41.12
29839;BME280;18669;53.356;-1.464;2023-06-22T13:23:59;100925.78;;;28.91;43.77
29839;BME280;18669;53.356;-1.464;2023-06-22T13:26:44;100918.75;;;29.94;41.95
29839;BME280;18669;53.356;-1.464;2023-06-22T13:29:29;100925.19;;;32.32;39.95
29839;BME280;18669;53.356;-1.464;2023-06-22T13:32:14;100915.50;;;32.62;35.71
29839;BME280;18669;53.356;-1.464;2023-06-22T13:34:59;100920.06;;;31.43;38.30
29839;BME280;18669;53.356;-1.464;2023-06-22T13:37:44;100920.16;;;31.33;39.33
29839;BME280;18669;53.356;-1.464;2023-06-22T13:40:29;100922.66;;;32.88;39.11
29839;BME280;18669;53.356;-1.464;2023-06-22T13:43:14;100917.53;;;34.61;35.17
29839;BME280;18669;53.356;-1.464;2023-06-22T13:45:58;100916.38;;;35.47;34.00
29839;BME280;18669;53.356;-1.464;2023-06-22T13:48:43;100916.50;;;33.67;35.43
29839;BME280;18669;53.356;-1.464;2023-06-22T13:51:28;100922.44;;;31.72;39.47
29839;BME280;18669;53.356;-1.464;2023-06-22T13:54:14;100931.38;;;30.13;43.41
29839;BME280;18669;53.356;-1.464;2023-06-22T13:56:59;100930.31;;;29.10;43.98
29839;BME280;18669;53.356;-1.464;2023-06-22T13:59:44;100935.03;;;28.39;46.26
29839;BME280;18669;53.356;-1.464;2023-06-22T14:02:28;100930.56;;;27.78;49.08
29839;BME280;18669;53.356;-1.464;2023-06-22T14:05:13;100928.25;;;27.32;49.81
29839;BME280;18669;53.356;-1.464;2023-06-22T14:07:58;100931.28;;;27.18;52.01
29839;BME280;18669;53.356;-1.464;2023-06-22T14:10:43;100928.50;;;27.08;56.23
29839;BME280;18669;53.356;-1.464;2023-06-22T14:13:28;100929.75;;;26.83;54.60
29839;BME280;18669;53.356;-1.464;2023-06-22T14:16:13;100936.06;;;26.60;56.12